In Rescue
 
Open Full Screen Window  High Contrast Mode
Wind Gusting 16 knots
10
April 20, 2024 10:29 AM EDT
Weather Information
Wind Direction
  270 °
Wind Speed
  10 kt (12 mph)
Wind Gust
  16 kt (18 mph)
Altimeter
30.10 in
Visibility
10 SM
Temperature
05° C
41° F
Dewpoint
-07° C
19° F
Humidity
42%
Sky Condition
Broken @ 6,000 ft
Broken @ 4,700 ft
Broken @ 3,800 ft
VFR

METAR KAMN 201429Z AUTO 27010G16KT 10SM BKN038 BKN047 BKN060 05/M07 A3010 RMK AO2 T00471068

FAA Disclaimer: The data displayed is for advisory purposes only and is not to be used for flight planning or operations.